Time;durP1;ratioP1;P1;durP2;ratioP2;P2;SDS_P1;SDS_P2;PMS_P1;PMS_P2;Temp;Humidity;BMP_temperature;BMP_pressure;BME280_temperature;BME280_humidity;BME280_pressure;Samples;Min_cycle;Max_cycle;Signal;HPM_P1;HPM_P2
2022/10/06 00:01:15;;;;;;;8.70;1.42;;;;;;;;;;5050557;28;20384;-62
2022/10/06 00:03:41;;;;;;;4.82;1.02;;;;;;;;;;5050988;28;20468;-62
2022/10/06 00:06:08;;;;;;;7.28;1.02;;;;;;;;;;5050558;28;20041;-62
2022/10/06 00:08:35;;;;;;;10.48;1.10;;;;;;;;;;5049983;28;20127;-62
2022/10/06 00:11:01;;;;;;;8.25;1.20;;;;;;;;;;5050255;28;20191;-62
2022/10/06 00:13:28;;;;;;;7.88;1.05;;;;;;;;;;5050751;28;20033;-62
2022/10/06 00:15:54;;;;;;;9.82;1.13;;;;;;;;;;5050190;28;20086;-62
2022/10/06 00:18:20;;;;;;;5.22;1.55;;;;;;;;;;5050536;28;20036;-62
2022/10/06 00:20:52;;;;;;;6.90;1.30;;;;;;;;;;5050688;28;20041;-62
2022/10/06 00:23:19;;;;;;;8.05;1.10;;;;;;;;;;5050228;28;20068;-62
2022/10/06 00:25:45;;;;;;;3.92;0.93;;;;;;;;;;5050424;28;20045;-62
2022/10/06 00:28:11;;;;;;;6.45;1.17;;;;;;;;;;5050356;28;20044;-62
2022/10/06 00:30:37;;;;;;;6.43;1.00;;;;;;;;;;5050010;28;20048;-62
2022/10/06 00:33:03;;;;;;;8.48;1.20;;;;;;;;;;5050420;28;20092;-62
2022/10/06 00:35:32;;;;;;;4.05;0.98;;;;;;;;;;5050524;28;20572;-62
2022/10/06 00:37:58;;;;;;;6.82;1.05;;;;;;;;;;5053467;28;20048;-62
2022/10/06 00:40:24;;;;;;;5.85;1.38;;;;;;;;;;5054481;28;20426;-62
2022/10/06 00:42:52;;;;;;;9.75;1.25;;;;;;;;;;5054401;28;20041;-62
2022/10/06 00:45:21;;;;;;;9.60;1.00;;;;;;;;;;5054003;28;20049;-62
2022/10/06 00:47:47;;;;;;;9.50;1.20;;;;;;;;;;5036492;28;20471;-62
2022/10/06 00:50:14;;;;;;;10.23;1.20;;;;;;;;;;5054219;28;20106;-62
2022/10/06 00:52:41;;;;;;;6.60;1.45;;;;;;;;;;5053514;28;20376;-62
2022/10/06 00:55:10;;;;;;;9.38;1.45;;;;;;;;;;5053993;28;20431;-62
2022/10/06 00:57:37;;;;;;;6.60;1.23;;;;;;;;;;5054171;28;20048;-62
2022/10/06 01:00:04;;;;;;;6.72;1.15;;;;;;;;;;5053418;28;20128;-62
2022/10/06 01:02:37;;;;;;;10.55;1.40;;;;;;;;;;5054098;28;20086;-62
2022/10/06 01:05:04;;;;;;;6.18;1.27;;;;;;;;;;5053858;28;20051;-62
2022/10/06 01:07:30;;;;;;;8.25;1.17;;;;;;;;;;5053151;28;20083;-62
2022/10/06 01:09:57;;;;;;;12.32;1.40;;;;;;;;;;5035574;28;20128;-62
2022/10/06 01:12:24;;;;;;;8.15;1.30;;;;;;;;;;5053686;28;20056;-62
2022/10/06 01:14:51;;;;;;;13.43;1.70;;;;;;;;;;5053542;28;20461;-62
2022/10/06 01:17:29;;;;;;;10.90;1.40;;;;;;;;;;5035764;28;20045;-62
2022/10/06 01:20:09;;;;;;;14.43;1.92;;;;;;;;;;5053532;28;20051;-62
2022/10/06 01:22:37;;;;;;;10.93;1.65;;;;;;;;;;5053337;28;20648;-62
2022/10/06 01:25:04;;;;;;;7.75;1.90;;;;;;;;;;5035555;28;20427;-62
2022/10/06 01:27:31;;;;;;;9.05;1.67;;;;;;;;;;5053547;28;20040;-62
2022/10/06 01:29:58;;;;;;;7.72;1.63;;;;;;;;;;5052898;28;20091;-62
2022/10/06 01:32:25;;;;;;;11.40;1.42;;;;;;;;;;5053107;28;20099;-62
2022/10/06 01:34:51;;;;;;;10.48;1.63;;;;;;;;;;5053550;28;20029;-62
2022/10/06 01:37:17;;;;;;;7.72;1.27;;;;;;;;;;5052947;28;20390;-62
2022/10/06 01:39:43;;;;;;;10.70;1.33;;;;;;;;;;5053157;28;20092;-62
2022/10/06 01:42:09;;;;;;;8.60;1.40;;;;;;;;;;5053292;28;20542;-62
2022/10/06 01:44:36;;;;;;;9.73;1.20;;;;;;;;;;5052875;28;20601;-62
2022/10/06 01:47:04;;;;;;;7.28;1.13;;;;;;;;;;5052442;28;20044;-62
2022/10/06 01:49:30;;;;;;;11.85;1.70;;;;;;;;;;5053131;28;20056;-62
2022/10/06 01:51:56;;;;;;;8.73;1.27;;;;;;;;;;5052734;28;20041;-62
2022/10/06 01:54:22;;;;;;;7.13;1.45;;;;;;;;;;5035006;28;20048;-62
2022/10/06 01:56:48;;;;;;;11.35;1.65;;;;;;;;;;5053082;28;20033;-62
2022/10/06 01:59:14;;;;;;;12.00;1.50;;;;;;;;;;5052522;28;20124;-62
2022/10/06 02:01:41;;;;;;;14.98;2.08;;;;;;;;;;5052822;28;20098;-62
2022/10/06 02:04:07;;;;;;;12.63;1.42;;;;;;;;;;5052852;28;20040;-62
2022/10/06 02:06:33;;;;;;;9.70;1.30;;;;;;;;;;5051988;28;20475;-62
2022/10/06 02:09:02;;;;;;;13.95;1.40;;;;;;;;;;5052410;28;20048;-62
2022/10/06 02:11:28;;;;;;;11.88;1.48;;;;;;;;;;5052366;28;20175;-62
2022/10/06 02:13:54;;;;;;;10.25;1.50;;;;;;;;;;5052509;28;20029;-62
2022/10/06 02:16:20;;;;;;;9.35;1.38;;;;;;;;;;5052796;28;20349;-62
2022/10/06 02:18:47;;;;;;;10.30;1.23;;;;;;;;;;5052507;28;20048;-62
2022/10/06 02:21:20;;;;;;;6.40;1.10;;;;;;;;;;5051810;28;20049;-62
2022/10/06 02:23:47;;;;;;;10.68;1.50;;;;;;;;;;5052381;28;20458;-62
2022/10/06 02:26:16;;;;;;;8.60;1.58;;;;;;;;;;5052348;28;20041;-62
2022/10/06 02:28:43;;;;;;;11.60;1.98;;;;;;;;;;5051938;28;20491;-62
2022/10/06 02:31:10;;;;;;;8.40;1.45;;;;;;;;;;5052164;28;20450;-62
2022/10/06 02:33:36;;;;;;;11.52;1.92;;;;;;;;;;5052050;28;20047;-62
2022/10/06 02:36:03;;;;;;;13.60;1.60;;;;;;;;;;5051659;28;20079;-62
2022/10/06 02:38:31;;;;;;;12.10;1.48;;;;;;;;;;5052386;28;20045;-62
2022/10/06 02:40:57;;;;;;;10.73;1.70;;;;;;;;;;5052365;28;20388;-62
2022/10/06 02:43:24;;;;;;;7.47;1.17;;;;;;;;;;5051752;28;20055;-62
2022/10/06 02:46:17;;;;;;;11.00;1.58;;;;;;;;;;5052458;28;20041;-62
2022/10/06 02:48:43;;;;;;;12.95;1.67;;;;;;;;;;5048528;28;20650;-62
2022/10/06 02:51:14;;;;;;;8.60;1.58;;;;;;;;;;5051639;28;20510;-62
2022/10/06 02:53:41;;;;;;;7.13;1.20;;;;;;;;;;5051847;28;20077;-62
2022/10/06 02:56:09;;;;;;;8.30;1.50;;;;;;;;;;5051513;28;20120;-62
2022/10/06 02:58:35;;;;;;;7.85;1.40;;;;;;;;;;5050561;28;20108;-62
2022/10/06 03:01:21;;;;;;;9.35;1.77;;;;;;;;;;5050257;28;20041;-62
2022/10/06 03:03:47;;;;;;;13.05;1.40;;;;;;;;;;5050594;28;20463;-62
2022/10/06 03:06:21;;;;;;;12.20;1.52;;;;;;;;;;5049977;28;20048;-62
2022/10/06 03:08:53;;;;;;;7.38;1.27;;;;;;;;;;5050530;28;20068;-62
2022/10/06 03:11:20;;;;;;;18.00;1.80;;;;;;;;;;5050424;28;20396;-62
2022/10/06 03:13:48;;;;;;;10.93;1.20;;;;;;;;;;5031946;28;20073;-62
2022/10/06 03:16:18;;;;;;;9.88;1.33;;;;;;;;;;5050500;28;20048;-62
2022/10/06 03:18:45;;;;;;;11.38;1.50;;;;;;;;;;5050314;28;20524;-62
2022/10/06 03:21:15;;;;;;;6.95;1.42;;;;;;;;;;5049904;28;20037;-62
2022/10/06 03:23:42;;;;;;;7.28;1.70;;;;;;;;;;5049888;28;20092;-62
2022/10/06 03:26:08;;;;;;;10.00;1.10;;;;;;;;;;5050006;28;20040;-62
2022/10/06 03:28:34;;;;;;;9.95;1.38;;;;;;;;;;5031830;28;20041;-62
2022/10/06 03:31:01;;;;;;;8.50;1.25;;;;;;;;;;5031724;28;20044;-62
2022/10/06 03:33:27;;;;;;;7.90;1.55;;;;;;;;;;5049755;28;20041;-62
2022/10/06 03:36:00;;;;;;;5.53;1.25;;;;;;;;;;5049488;28;20476;-62
2022/10/06 03:38:26;;;;;;;13.85;1.75;;;;;;;;;;5049811;28;20037;-62
2022/10/06 03:40:52;;;;;;;8.63;1.30;;;;;;;;;;5049812;28;20041;-62
2022/10/06 03:43:18;;;;;;;10.73;2.53;;;;;;;;;;5049469;28;20491;-62
2022/10/06 03:45:55;;;;;;;9.77;1.67;;;;;;;;;;5049614;28;20474;-62
2022/10/06 03:48:21;;;;;;;15.18;1.40;;;;;;;;;;5049701;28;20087;-62
2022/10/06 03:50:53;;;;;;;7.28;1.20;;;;;;;;;;5049252;28;20076;-62
2022/10/06 03:53:24;;;;;;;8.20;1.67;;;;;;;;;;5049755;28;20098;-62
2022/10/06 03:55:50;;;;;;;9.23;1.30;;;;;;;;;;5050067;28;20387;-62
2022/10/06 03:58:17;;;;;;;10.30;1.50;;;;;;;;;;5031111;28;20037;-62
2022/10/06 04:00:45;;;;;;;8.52;1.73;;;;;;;;;;5049411;28;20048;-62
2022/10/06 04:03:11;;;;;;;13.32;1.67;;;;;;;;;;5049642;28;20044;-62
2022/10/06 04:05:37;;;;;;;10.93;1.75;;;;;;;;;;5049107;28;20047;-62
2022/10/06 04:08:03;;;;;;;10.13;1.70;;;;;;;;;;5049154;28;20457;-62
2022/10/06 04:10:29;;;;;;;9.48;1.30;;;;;;;;;;5049117;28;20426;-62
2022/10/06 04:12:55;;;;;;;15.15;1.60;;;;;;;;;;5049252;28;20144;-62
2022/10/06 04:15:20;;;;;;;9.77;2.53;;;;;;;;;;5049703;28;20072;-62
2022/10/06 04:17:46;;;;;;;11.07;1.92;;;;;;;;;;5049153;28;20111;-62
2022/10/06 04:20:12;;;;;;;9.48;1.23;;;;;;;;;;5048888;28;20045;-62
2022/10/06 04:22:38;;;;;;;12.82;1.33;;;;;;;;;;5049389;28;20180;-62
2022/10/06 04:25:05;;;;;;;6.85;1.30;;;;;;;;;;5031092;28;20120;-62
2022/10/06 04:27:31;;;;;;;15.20;1.67;;;;;;;;;;5049019;28;20063;-62
2022/10/06 04:29:57;;;;;;;9.38;1.55;;;;;;;;;;5049221;28;20045;-62
2022/10/06 04:32:23;;;;;;;10.60;1.80;;;;;;;;;;5049345;28;20044;-62
2022/10/06 04:34:49;;;;;;;9.15;1.48;;;;;;;;;;5048792;28;20045;-62
2022/10/06 04:37:15;;;;;;;18.30;2.10;;;;;;;;;;5049404;28;20482;-62
2022/10/06 04:39:41;;;;;;;11.85;1.35;;;;;;;;;;5050437;28;20096;-62
2022/10/06 04:42:07;;;;;;;9.25;1.70;;;;;;;;;;5050166;28;20343;-62
2022/10/06 04:44:33;;;;;;;9.52;1.52;;;;;;;;;;5050543;28;20060;-62
2022/10/06 04:47:00;;;;;;;12.63;1.70;;;;;;;;;;5050091;28;20077;-62
2022/10/06 04:49:26;;;;;;;8.65;1.55;;;;;;;;;;5049487;28;20037;-62
2022/10/06 04:51:52;;;;;;;10.40;1.67;;;;;;;;;;5049783;28;20033;-62
2022/10/06 04:54:18;;;;;;;9.20;1.63;;;;;;;;;;5049722;28;20084;-62
2022/10/06 04:56:44;;;;;;;11.70;1.42;;;;;;;;;;5048994;28;20041;-62
2022/10/06 04:59:10;;;;;;;20.52;1.75;;;;;;;;;;5049297;28;20040;-62
2022/10/06 05:01:36;;;;;;;10.48;1.77;;;;;;;;;;5050156;28;20445;-62
2022/10/06 05:04:04;;;;;;;9.52;1.42;;;;;;;;;;5049769;28;20044;-62
2022/10/06 05:06:33;;;;;;;9.55;1.70;;;;;;;;;;5046606;28;20537;-61
2022/10/06 05:09:10;;;;;;;11.98;2.45;;;;;;;;;;5055505;28;20040;-61
2022/10/06 05:11:37;;;;;;;11.00;2.28;;;;;;;;;;5050180;28;20057;-61
2022/10/06 05:14:03;;;;;;;11.25;1.77;;;;;;;;;;5031688;28;20048;-61
2022/10/06 05:16:29;;;;;;;12.25;1.92;;;;;;;;;;5050057;28;20124;-61
2022/10/06 05:18:55;;;;;;;10.45;2.10;;;;;;;;;;5049241;28;20160;-61
2022/10/06 05:21:23;;;;;;;12.48;1.70;;;;;;;;;;5049690;28;20136;-61
2022/10/06 05:23:49;;;;;;;15.45;2.13;;;;;;;;;;5052664;28;20076;-61
2022/10/06 05:26:16;;;;;;;10.07;1.50;;;;;;;;;;5052887;28;20119;-61
2022/10/06 05:28:42;;;;;;;14.80;1.63;;;;;;;;;;5053316;28;20041;-61
2022/10/06 05:31:18;;;;;;;8.63;1.27;;;;;;;;;;5035134;28;20041;-61
2022/10/06 05:33:44;;;;;;;9.85;1.63;;;;;;;;;;5052930;28;20072;-61
2022/10/06 05:36:11;;;;;;;15.40;1.88;;;;;;;;;;5053279;28;20044;-61
2022/10/06 05:38:38;;;;;;;16.40;1.80;;;;;;;;;;5052986;28;20349;-61
2022/10/06 05:41:05;;;;;;;11.38;1.83;;;;;;;;;;5052867;28;20040;-61
2022/10/06 05:43:32;;;;;;;12.68;1.70;;;;;;;;;;5053079;28;20045;-61
2022/10/06 05:45:59;;;;;;;11.10;1.90;;;;;;;;;;5052981;28;20033;-61
2022/10/06 05:48:26;;;;;;;14.00;1.70;;;;;;;;;;5052601;28;20041;-61
2022/10/06 05:51:05;;;;;;;16.15;2.00;;;;;;;;;;5052412;28;20045;-61
2022/10/06 05:53:32;;;;;;;12.10;1.70;;;;;;;;;;5052764;28;20040;-61
2022/10/06 05:56:07;;;;;;;10.68;1.58;;;;;;;;;;5052686;28;20114;-61
2022/10/06 05:58:33;;;;;;;11.52;1.40;;;;;;;;;;5059188;28;20055;-61
2022/10/06 06:01:18;;;;;;;7.22;1.50;;;;;;;;;;5054504;28;20068;-61
2022/10/06 06:03:52;;;;;;;7.75;1.90;;;;;;;;;;5067550;28;20033;-65
2022/10/06 06:06:27;;;;;;;16.45;1.90;;;;;;;;;;5059127;28;20041;-64
2022/10/06 06:08:54;;;;;;;9.93;1.85;;;;;;;;;;5051980;28;20053;-63
2022/10/06 06:11:24;;;;;;;8.27;2.35;;;;;;;;;;5051353;28;20414;-63
2022/10/06 06:13:51;;;;;;;15.00;2.03;;;;;;;;;;5052154;28;20063;-65
2022/10/06 06:16:17;;;;;;;8.27;1.30;;;;;;;;;;5017600;28;20147;-65
2022/10/06 06:18:43;;;;;;;15.55;1.85;;;;;;;;;;5051470;28;20044;-64
2022/10/06 06:21:10;;;;;;;10.32;2.10;;;;;;;;;;5051936;28;20044;-65
2022/10/06 06:23:37;;;;;;;9.43;2.20;;;;;;;;;;5051714;28;20049;-65
2022/10/06 06:26:06;;;;;;;15.45;1.80;;;;;;;;;;5051077;28;20044;-65
2022/10/06 06:28:32;;;;;;;11.63;1.75;;;;;;;;;;5052014;28;20037;-63
2022/10/06 06:31:01;;;;;;;9.10;1.90;;;;;;;;;;5051343;28;20048;-64
2022/10/06 06:33:27;;;;;;;13.70;1.70;;;;;;;;;;5044657;28;20056;-64
2022/10/06 06:35:53;;;;;;;12.57;2.13;;;;;;;;;;5069665;28;20036;-64
2022/10/06 06:38:19;;;;;;;10.00;2.08;;;;;;;;;;5058537;28;20072;-66
2022/10/06 06:40:45;;;;;;;8.45;1.70;;;;;;;;;;5046066;28;20037;-66
2022/10/06 06:43:12;;;;;;;16.42;1.63;;;;;;;;;;5058899;28;20063;-67
2022/10/06 06:45:38;;;;;;;14.82;1.95;;;;;;;;;;5037750;28;20048;-65
2022/10/06 06:48:04;;;;;;;8.55;1.60;;;;;;;;;;5052543;28;20048;-66
2022/10/06 06:50:31;;;;;;;11.52;1.45;;;;;;;;;;5057060;28;20464;-65
2022/10/06 06:52:57;;;;;;;12.95;1.75;;;;;;;;;;5032453;28;20041;-64
2022/10/06 06:55:23;;;;;;;16.90;2.08;;;;;;;;;;5049900;28;20037;-64
2022/10/06 06:57:49;;;;;;;16.27;2.40;;;;;;;;;;5050666;28;20522;-67
2022/10/06 07:00:16;;;;;;;13.20;1.80;;;;;;;;;;5050917;28;20116;-65
2022/10/06 07:02:42;;;;;;;15.20;1.88;;;;;;;;;;5049756;28;20037;-65
2022/10/06 07:05:10;;;;;;;10.25;1.90;;;;;;;;;;5050231;28;20032;-66
2022/10/06 07:07:36;;;;;;;12.57;2.03;;;;;;;;;;5050629;28;20040;-64
2022/10/06 07:10:02;;;;;;;12.73;1.98;;;;;;;;;;5048953;28;20056;-65
2022/10/06 07:12:28;;;;;;;16.58;2.15;;;;;;;;;;5049720;28;20086;-67
2022/10/06 07:25:59;;;;;;;9.70;1.85;;;;;;;;;;5049724;28;20041;-66
2022/10/06 07:28:25;;;;;;;11.60;1.92;;;;;;;;;;5049779;28;20041;-65
2022/10/06 07:30:51;;;;;;;13.02;1.88;;;;;;;;;;5031580;28;20040;-66
2022/10/06 07:33:18;;;;;;;15.70;2.53;;;;;;;;;;5052313;28;20041;-65
2022/10/06 07:35:44;;;;;;;10.70;1.55;;;;;;;;;;5060899;28;20320;-67
2022/10/06 07:38:10;;;;;;;9.95;1.60;;;;;;;;;;5053079;28;20047;-65
2022/10/06 07:40:36;;;;;;;10.63;1.95;;;;;;;;;;5049226;28;20060;-64
2022/10/06 07:43:02;;;;;;;15.95;2.38;;;;;;;;;;5050516;28;20087;-64
2022/10/06 07:45:39;;;;;;;15.45;2.15;;;;;;;;;;5049133;28;20047;-64
2022/10/06 07:48:07;;;;;;;13.13;2.58;;;;;;;;;;5049778;28;20483;-66
2022/10/06 07:50:33;;;;;;;10.57;1.90;;;;;;;;;;5049557;28;20040;-66
2022/10/06 07:53:00;;;;;;;16.23;1.70;;;;;;;;;;5056740;28;20068;-66
2022/10/06 07:55:26;;;;;;;12.05;1.83;;;;;;;;;;5064474;28;20453;-66
2022/10/06 07:57:52;;;;;;;11.30;2.05;;;;;;;;;;5054404;28;20037;-65
2022/10/06 08:00:21;;;;;;;13.15;1.80;;;;;;;;;;5049245;28;20044;-66
2022/10/06 08:02:47;;;;;;;13.25;1.88;;;;;;;;;;5043646;28;20080;-65
2022/10/06 08:05:13;;;;;;;11.70;2.00;;;;;;;;;;5027537;28;20102;-64
2022/10/06 08:07:40;;;;;;;15.30;2.42;;;;;;;;;;5031045;28;20120;-65
2022/10/06 08:10:06;;;;;;;14.50;2.08;;;;;;;;;;5048577;28;20045;-65
2022/10/06 08:12:32;;;;;;;17.83;2.10;;;;;;;;;;5014466;28;20044;-66
2022/10/06 08:15:01;;;;;;;11.68;2.10;;;;;;;;;;5031552;28;20147;-67
2022/10/06 08:17:27;;;;;;;11.82;1.52;;;;;;;;;;5031210;28;20083;-65
2022/10/06 08:19:53;;;;;;;10.75;1.40;;;;;;;;;;5014976;28;20102;-65
2022/10/06 08:22:21;;;;;;;13.23;1.63;;;;;;;;;;5058227;28;20494;-65
2022/10/06 08:24:47;;;;;;;10.98;1.83;;;;;;;;;;5069101;28;20056;-66
2022/10/06 08:27:13;;;;;;;12.30;2.22;;;;;;;;;;5031695;28;20060;-66
2022/10/06 08:29:39;;;;;;;13.07;1.98;;;;;;;;;;5044589;28;20045;-65
2022/10/06 08:32:05;;;;;;;15.70;2.83;;;;;;;;;;5026976;28;20048;-66
2022/10/06 08:34:31;;;;;;;13.68;1.90;;;;;;;;;;5047223;28;20040;-68
2022/10/06 08:37:02;;;;;;;9.90;1.50;;;;;;;;;;5060936;28;20059;-68
2022/10/06 08:39:29;;;;;;;14.40;1.83;;;;;;;;;;5032094;28;20102;-67
2022/10/06 08:41:56;;;;;;;13.43;1.75;;;;;;;;;;5054411;28;20157;-68
2022/10/06 08:44:29;;;;;;;13.75;1.80;;;;;;;;;;5029541;28;20041;-67
2022/10/06 08:47:00;;;;;;;14.23;2.30;;;;;;;;;;5050333;28;20071;-67
2022/10/06 08:49:37;;;;;;;7.07;1.60;;;;;;;;;;5045346;28;20052;-65
2022/10/06 08:52:22;;;;;;;11.57;1.95;;;;;;;;;;5059026;28;20048;-65
2022/10/06 08:54:57;;;;;;;10.98;1.60;;;;;;;;;;5053084;28;20037;-65
2022/10/06 08:57:41;;;;;;;13.15;2.05;;;;;;;;;;5055378;28;20081;-66
2022/10/06 09:00:11;;;;;;;15.15;1.88;;;;;;;;;;5055356;28;20033;-66
2022/10/06 09:02:40;;;;;;;15.40;2.20;;;;;;;;;;5049415;28;20116;-68
2022/10/06 09:05:07;;;;;;;13.63;1.65;;;;;;;;;;5044809;28;20040;-65
2022/10/06 09:07:42;;;;;;;11.55;2.05;;;;;;;;;;5049618;28;20045;-65
2022/10/06 09:10:27;;;;;;;13.95;1.90;;;;;;;;;;5024948;28;20471;-65
2022/10/06 09:12:55;;;;;;;12.65;2.40;;;;;;;;;;5048382;28;20055;-66
2022/10/06 09:15:40;;;;;;;13.55;2.10;;;;;;;;;;5051688;28;20036;-66
2022/10/06 09:18:15;;;;;;;9.15;2.67;;;;;;;;;;5050788;28;20102;-68
2022/10/06 09:20:57;;;;;;;10.55;1.65;;;;;;;;;;5052491;28;20048;-66
2022/10/06 09:26:11;;;;;;;10.43;1.63;;;;;;;;;;5049744;28;20646;-67
2022/10/06 09:28:37;;;;;;;14.13;2.03;;;;;;;;;;5063272;28;20119;-66
2022/10/06 09:31:08;;;;;;;14.30;2.22;;;;;;;;;;5049098;28;20171;-68
2022/10/06 09:33:38;;;;;;;12.10;1.73;;;;;;;;;;5051003;28;20052;-67
2022/10/06 09:36:09;;;;;;;13.32;1.90;;;;;;;;;;5049053;28;20111;-68
2022/10/06 09:38:52;;;;;;;9.45;1.40;;;;;;;;;;5030010;28;20764;-69
2022/10/06 09:41:18;;;;;;;14.95;2.00;;;;;;;;;;5029685;28;20048;-69
2022/10/06 09:43:56;;;;;;;16.60;1.60;;;;;;;;;;5047631;28;20098;-68
2022/10/06 09:46:33;;;;;;;7.35;1.70;;;;;;;;;;5050092;28;20114;-70
2022/10/06 09:49:18;;;;;;;13.73;1.90;;;;;;;;;;5031849;28;20045;-71
2022/10/06 09:52:03;;;;;;;11.40;2.15;;;;;;;;;;5049863;28;20058;-69
2022/10/06 09:54:30;;;;;;;11.77;1.50;;;;;;;;;;5022675;28;20045;-66
2022/10/06 09:56:58;;;;;;;13.52;1.75;;;;;;;;;;5030058;28;20125;-66
2022/10/06 09:59:35;;;;;;;12.18;1.48;;;;;;;;;;5046528;28;20041;-70
2022/10/06 10:02:03;;;;;;;12.70;1.88;;;;;;;;;;5026660;28;20047;-70
2022/10/06 10:04:35;;;;;;;13.57;2.15;;;;;;;;;;5049259;28;20763;-68
2022/10/06 10:07:14;;;;;;;10.48;1.88;;;;;;;;;;5030496;28;20053;-70
2022/10/06 10:09:43;;;;;;;23.65;2.22;;;;;;;;;;5031906;28;20060;-70
2022/10/06 10:12:28;;;;;;;7.97;1.50;;;;;;;;;;5031670;28;20045;-72
2022/10/06 10:15:23;;;;;;;8.05;1.30;;;;;;;;;;5033615;28;20044;-69
2022/10/06 10:17:56;;;;;;;10.75;1.58;;;;;;;;;;5055042;28;20041;-67
2022/10/06 10:20:28;;;;;;;14.70;1.63;;;;;;;;;;5048006;28;20155;-70
2022/10/06 10:22:56;;;;;;;9.30;1.98;;;;;;;;;;5016497;28;20131;-67
2022/10/06 10:25:41;;;;;;;13.18;2.30;;;;;;;;;;5060272;28;20033;-65
2022/10/06 10:28:14;;;;;;;8.38;1.20;;;;;;;;;;5030210;28;20045;-66
2022/10/06 10:30:58;;;;;;;5.78;1.08;;;;;;;;;;5048305;28;20033;-66
2022/10/06 10:33:24;;;;;;;7.78;1.55;;;;;;;;;;5049493;28;20132;-70
2022/10/06 10:35:52;;;;;;;11.82;1.40;;;;;;;;;;5047655;28;20525;-66
2022/10/06 10:38:22;;;;;;;8.15;1.27;;;;;;;;;;5049831;28;20049;-69
2022/10/06 10:40:50;;;;;;;9.10;1.50;;;;;;;;;;5047691;28;20518;-71
2022/10/06 10:43:17;;;;;;;6.82;1.40;;;;;;;;;;5052089;28;20056;-71
2022/10/06 10:45:49;;;;;;;13.43;1.48;;;;;;;;;;5031077;28;20097;-72
2022/10/06 10:48:18;;;;;;;8.50;1.15;;;;;;;;;;5017884;28;20061;-72
2022/10/06 10:50:48;;;;;;;9.60;1.15;;;;;;;;;;5032017;28;20685;-72
2022/10/06 10:53:46;;;;;;;10.98;1.40;;;;;;;;;;5034764;28;20064;-71
2022/10/06 10:56:15;;;;;;;7.97;1.48;;;;;;;;;;4991177;28;20045;-72
2022/10/06 10:58:45;;;;;;;9.05;1.73;;;;;;;;;;5031810;28;20078;-71
2022/10/06 11:01:11;;;;;;;7.88;1.48;;;;;;;;;;5068893;28;20123;-72
2022/10/06 11:03:37;;;;;;;6.93;1.95;;;;;;;;;;5049429;28;20947;-70
2022/10/06 11:06:06;;;;;;;5.90;1.50;;;;;;;;;;5051383;28;20687;-70
2022/10/06 11:08:32;;;;;;;3.55;1.10;;;;;;;;;;5036322;28;20099;-70
2022/10/06 11:11:00;;;;;;;8.43;1.20;;;;;;;;;;5018240;28;20479;-72
2022/10/06 11:13:29;;;;;;;8.52;1.33;;;;;;;;;;5016782;28;20045;-71
2022/10/06 11:16:05;;;;;;;5.78;1.08;;;;;;;;;;5021042;28;20041;-71
2022/10/06 11:18:40;;;;;;;9.07;1.15;;;;;;;;;;5031487;28;20079;-71
2022/10/06 11:21:17;;;;;;;11.48;1.42;;;;;;;;;;4998024;28;20041;-70
2022/10/06 11:23:52;;;;;;;6.72;1.17;;;;;;;;;;5010095;28;20057;-71
2022/10/06 11:26:37;;;;;;;7.63;1.77;;;;;;;;;;5012798;28;20790;-66
2022/10/06 11:29:03;;;;;;;5.75;0.73;;;;;;;;;;5031475;28;20037;-65
2022/10/06 11:31:34;;;;;;;6.50;1.70;;;;;;;;;;5029111;28;20136;-64
2022/10/06 11:34:01;;;;;;;6.15;0.85;;;;;;;;;;5029024;28;20087;-67
2022/10/06 11:36:37;;;;;;;9.15;0.98;;;;;;;;;;5013580;28;20065;-66
2022/10/06 11:39:21;;;;;;;5.07;1.58;;;;;;;;;;5029698;28;20049;-66
2022/10/06 11:41:50;;;;;;;7.50;1.38;;;;;;;;;;5037345;28;20507;-68
2022/10/06 11:44:22;;;;;;;5.65;1.10;;;;;;;;;;5025339;28;20399;-66
2022/10/06 11:46:52;;;;;;;9.85;1.55;;;;;;;;;;5011027;28;20041;-64
2022/10/06 11:49:31;;;;;;;6.45;0.90;;;;;;;;;;5030666;28;20474;-66
2022/10/06 11:52:06;;;;;;;7.80;0.77;;;;;;;;;;5037447;28;20732;-64
2022/10/06 11:54:44;;;;;;;6.93;1.00;;;;;;;;;;5031409;28;20476;-65
2022/10/06 11:57:30;;;;;;;5.30;0.95;;;;;;;;;;5026526;28;20368;-64
2022/10/06 12:00:00;;;;;;;4.90;1.00;;;;;;;;;;5005417;28;20439;-66
2022/10/06 12:02:32;;;;;;;5.65;1.10;;;;;;;;;;5029191;28;20099;-67
2022/10/06 12:05:10;;;;;;;10.70;1.02;;;;;;;;;;5030282;28;20060;-68
2022/10/06 12:07:51;;;;;;;6.60;1.27;;;;;;;;;;5019965;28;20053;-70
2022/10/06 12:10:27;;;;;;;8.80;1.45;;;;;;;;;;5040934;28;20059;-68
2022/10/06 12:13:13;;;;;;;3.70;0.77;;;;;;;;;;5064378;28;20129;-70
2022/10/06 12:15:39;;;;;;;7.75;1.10;;;;;;;;;;5054878;28;20376;-68
2022/10/06 12:18:17;;;;;;;3.85;0.98;;;;;;;;;;5047136;28;20044;-69
2022/10/06 12:20:52;;;;;;;6.05;1.25;;;;;;;;;;5050443;28;20118;-68
2022/10/06 12:23:38;;;;;;;7.15;0.82;;;;;;;;;;5025470;28;20049;-68
2022/10/06 12:26:27;;;;;;;7.35;0.88;;;;;;;;;;5043138;28;20098;-69
2022/10/06 12:29:01;;;;;;;5.63;0.77;;;;;;;;;;5033489;28;20123;-68
2022/10/06 12:31:36;;;;;;;5.13;0.95;;;;;;;;;;5021701;28;20045;-69
2022/10/06 12:34:03;;;;;;;5.82;1.33;;;;;;;;;;5053101;28;20079;-72
2022/10/06 12:36:30;;;;;;;4.57;0.70;;;;;;;;;;5037073;28;20097;-71
2022/10/06 12:39:15;;;;;;;6.47;0.90;;;;;;;;;;5034626;28;20450;-68
2022/10/06 12:42:00;;;;;;;9.80;1.63;;;;;;;;;;5028800;28;20049;-68
2022/10/06 12:44:26;;;;;;;6.38;0.95;;;;;;;;;;5056611;28;20123;-67
2022/10/06 12:46:53;;;;;;;5.68;1.25;;;;;;;;;;5052877;28;20123;-69
2022/10/06 12:49:42;;;;;;;12.05;1.30;;;;;;;;;;5046107;28;20055;-69
2022/10/06 12:52:26;;;;;;;3.75;1.00;;;;;;;;;;5036167;28;20060;-70
2022/10/06 12:55:10;;;;;;;4.13;0.85;;;;;;;;;;5034109;28;20065;-69
2022/10/06 12:57:53;;;;;;;5.05;0.90;;;;;;;;;;5033660;28;20468;-69
2022/10/06 13:00:23;;;;;;;6.47;1.20;;;;;;;;;;5047726;28;20415;-69
2022/10/06 13:02:52;;;;;;;5.85;1.00;;;;;;;;;;5045492;28;20047;-71
2022/10/06 13:05:19;;;;;;;5.68;1.35;;;;;;;;;;5033788;28;20055;-70
2022/10/06 13:07:56;;;;;;;7.60;1.33;;;;;;;;;;5049704;28;20045;-69
2022/10/06 13:10:22;;;;;;;6.47;1.10;;;;;;;;;;5018768;28;20048;-68
2022/10/06 13:12:50;;;;;;;5.10;1.15;;;;;;;;;;5048668;28;20041;-69
2022/10/06 13:15:22;;;;;;;8.63;1.27;;;;;;;;;;5044158;28;20036;-69
2022/10/06 13:18:03;;;;;;;6.38;1.20;;;;;;;;;;5043986;28;20048;-70
2022/10/06 13:20:41;;;;;;;4.80;0.80;;;;;;;;;;5064491;28;20382;-69
2022/10/06 13:23:16;;;;;;;7.82;1.33;;;;;;;;;;5045281;28;20033;-68
2022/10/06 13:25:42;;;;;;;7.93;1.17;;;;;;;;;;5051630;28;20041;-69
2022/10/06 13:28:18;;;;;;;9.57;1.10;;;;;;;;;;5050632;28;20037;-69
2022/10/06 13:30:49;;;;;;;6.90;1.20;;;;;;;;;;5049273;28;20073;-68
2022/10/06 13:33:15;;;;;;;9.82;1.55;;;;;;;;;;5046537;28;20072;-68
2022/10/06 13:35:41;;;;;;;7.03;1.38;;;;;;;;;;5043955;28;20475;-66
2022/10/06 13:38:07;;;;;;;10.13;1.60;;;;;;;;;;5053853;28;20063;-68
2022/10/06 13:40:33;;;;;;;6.68;1.38;;;;;;;;;;5056081;28;20098;-69
2022/10/06 13:43:00;;;;;;;6.38;1.25;;;;;;;;;;5050233;28;20403;-69
2022/10/06 13:45:27;;;;;;;5.68;1.42;;;;;;;;;;5050651;28;20387;-69
2022/10/06 13:48:03;;;;;;;8.70;1.38;;;;;;;;;;5054845;28;20526;-69
2022/10/06 13:50:30;;;;;;;4.22;0.98;;;;;;;;;;5046974;28;20041;-68
2022/10/06 13:52:56;;;;;;;5.95;0.95;;;;;;;;;;5034594;28;20044;-69
2022/10/06 13:55:26;;;;;;;5.25;0.90;;;;;;;;;;5054715;28;20103;-67
2022/10/06 13:57:59;;;;;;;9.85;1.10;;;;;;;;;;5052700;28;20463;-69
2022/10/06 14:00:32;;;;;;;7.47;1.00;;;;;;;;;;5038764;28;20093;-71
2022/10/06 14:03:04;;;;;;;5.55;1.40;;;;;;;;;;5032656;28;20044;-66
2022/10/06 14:05:30;;;;;;;;;;;;;;;;;;5038453;28;20075;-66
2022/10/06 14:08:12;;;;;;;3.40;0.82;;;;;;;;;;5063585;28;19956;-66
2022/10/06 14:10:41;;;;;;;5.22;1.00;;;;;;;;;;5052667;28;20052;-67
2022/10/06 14:13:15;;;;;;;6.80;1.13;;;;;;;;;;5064556;28;20049;-64
2022/10/06 14:15:50;;;;;;;6.82;1.27;;;;;;;;;;5066466;28;20479;-68
2022/10/06 14:18:22;;;;;;;6.80;1.10;;;;;;;;;;5055978;28;20048;-69
2022/10/06 14:20:48;;;;;;;6.90;1.05;;;;;;;;;;5037320;28;20415;-68
2022/10/06 14:23:34;;;;;;;7.95;1.25;;;;;;;;;;5032749;28;20045;-66
2022/10/06 14:26:00;;;;;;;7.15;1.20;;;;;;;;;;5063207;28;20392;-66
2022/10/06 14:28:26;;;;;;;9.20;1.05;;;;;;;;;;5046624;28;20491;-65
2022/10/06 14:30:54;;;;;;;9.80;1.40;;;;;;;;;;5034018;28;20045;-64
2022/10/06 14:33:20;;;;;;;9.30;1.33;;;;;;;;;;5051124;28;20151;-65
2022/10/06 14:35:48;;;;;;;3.13;0.93;;;;;;;;;;5033904;28;20547;-66
2022/10/06 14:38:14;;;;;;;7.15;1.10;;;;;;;;;;5052001;28;20044;-66
2022/10/06 14:40:40;;;;;;;5.38;1.13;;;;;;;;;;5051012;28;20048;-66
2022/10/06 14:43:06;;;;;;;10.35;1.48;;;;;;;;;;5051958;28;20145;-65
2022/10/06 14:45:34;;;;;;;7.05;1.40;;;;;;;;;;5051556;28;20128;-65
2022/10/06 14:48:03;;;;;;;6.95;1.17;;;;;;;;;;5051291;28;20088;-66
2022/10/06 14:50:30;;;;;;;7.75;1.63;;;;;;;;;;5051652;28;20048;-65
2022/10/06 14:52:58;;;;;;;6.53;1.20;;;;;;;;;;5051651;28;20093;-65
2022/10/06 14:55:28;;;;;;;6.00;1.10;;;;;;;;;;5051146;28;20052;-66
2022/10/06 14:57:54;;;;;;;6.63;1.50;;;;;;;;;;5033665;28;20040;-65
2022/10/06 15:00:20;;;;;;;5.97;1.25;;;;;;;;;;5051446;28;20032;-65
2022/10/06 15:02:47;;;;;;;6.75;1.40;;;;;;;;;;5051178;28;20048;-64
2022/10/06 15:05:13;;;;;;;6.25;1.58;;;;;;;;;;5051545;28;20501;-64
2022/10/06 15:10:24;;;;;;;12.65;1.45;;;;;;;;;;5050815;28;20483;-64